This is the latest recevied weather packets stored in our database for station/object N4AN. If no packets are shown the sender has not sent any weather packets the latest 10 day(s).
| Time | Temp. | Humidity | Pressure | Rain* | Wind** | Luminosity | Snow |
|---|---|---|---|---|---|---|---|
| 1787791443 | 32.22° C | 71% | 1010.3 hPa | 0 mm | - | - | - |
| 1787791443 | 31.67° C | 70% | 1010.2 hPa | 0 mm | - | - | - |
| 1787790433 | 31.67° C | 73% | 1010.2 hPa | 0 mm | - | - | - |
| 1787790133 | 31.67° C | 73% | 1010.4 hPa | 0 mm | - | - | - |
| 1787789833 | 31.11° C | 74% | 1010.5 hPa | 0 mm | - | - | - |
| 1787789532 | 31.11° C | 72% | 1010.4 hPa | 0 mm | - | - | - |
| 1787789232 | 31.11° C | 73% | 1010.5 hPa | 0 mm | - | - | - |
| 1787788932 | 31.11° C | 72% | 1010.4 hPa | 0 mm | - | - | - |
| 1787788632 | 31.67° C | 70% | 1010.3 hPa | 0 mm | - | - | - |
| 1787788331 | 31.67° C | 70% | 1010.1 hPa | 0 mm | - | - | - |
| 1787788031 | 31.67° C | 70% | 1010.2 hPa | 0 mm | - | - | - |
| 1787787731 | 31.67° C | 70% | 1010.3 hPa | 0 mm | - | - | - |
| 1787787430 | 31.11° C | 72% | 1010.3 hPa | 0 mm | - | - | - |
| 1787787130 | 30.56° C | 73% | 1010.3 hPa | 0 mm | - | - | - |
| 1787786830 | 30.56° C | 73% | 1010.4 hPa | 0 mm | - | - | - |
| 1787786530 | 31.11° C | 72% | 1010.5 hPa | 0 mm | - | - | - |
| 1787786229 | 30.56° C | 75% | 1010.5 hPa | 0 mm | - | - | - |
| 1787785929 | 30.56° C | 75% | 1010.4 hPa | 0 mm | - | - | - |
| 1787785629 | 30.56° C | 76% | 1010.4 hPa | 0 mm | - | - | - |
| 1787785328 | 30.56° C | 74% | 1010.4 hPa | 0 mm | - | - | - |
| 1787785028 | 31.11° C | 74% | 1010.5 hPa | 0 mm | - | - | - |
| 1787784728 | 31.67° C | 73% | 1010.5 hPa | 0 mm | - | - | - |
| 1787784428 | 31.67° C | 73% | 1010.7 hPa | 0 mm | - | - | - |
| 1787784125 | 31.67° C | 74% | 1010.7 hPa | 0 mm | - | - | - |
| 1787783824 | 31.67° C | 74% | 1010.8 hPa | 0 mm | - | - | - |
* Rain latest hour (hover to see other rain measurements)
** Current wind speed in m/s (hover to see current wind gust speed)